sensor_id;sensor_type;location;lat;lon;timestamp;P1;durP1;ratioP1;P2;durP2;ratioP2
5163;SDS011;2601;50.224;10.126;2022-10-10T00:01:09;6.40;;;4.50;;
5163;SDS011;2601;50.224;10.126;2022-10-10T00:03:35;26.77;;;13.97;;
5163;SDS011;2601;50.224;10.126;2022-10-10T00:06:01;16.07;;;7.93;;
5163;SDS011;2601;50.224;10.126;2022-10-10T00:08:27;7.87;;;6.63;;
5163;SDS011;2601;50.224;10.126;2022-10-10T00:10:53;52.97;;;24.70;;
5163;SDS011;2601;50.224;10.126;2022-10-10T00:13:18;10.73;;;6.30;;
5163;SDS011;2601;50.224;10.126;2022-10-10T00:15:44;16.70;;;7.50;;
5163;SDS011;2601;50.224;10.126;2022-10-10T00:18:10;17.13;;;8.13;;
5163;SDS011;2601;50.224;10.126;2022-10-10T00:20:35;17.40;;;7.13;;
5163;SDS011;2601;50.224;10.126;2022-10-10T00:23:01;99.73;;;35.63;;
5163;SDS011;2601;50.224;10.126;2022-10-10T00:25:27;17.57;;;10.63;;
5163;SDS011;2601;50.224;10.126;2022-10-10T00:27:53;9.37;;;6.93;;
5163;SDS011;2601;50.224;10.126;2022-10-10T00:30:19;9.53;;;6.50;;
5163;SDS011;2601;50.224;10.126;2022-10-10T00:32:45;8.43;;;5.40;;
5163;SDS011;2601;50.224;10.126;2022-10-10T00:35:11;8.03;;;4.20;;
5163;SDS011;2601;50.224;10.126;2022-10-10T00:37:37;7.90;;;4.20;;
5163;SDS011;2601;50.224;10.126;2022-10-10T00:40:03;6.87;;;4.80;;
5163;SDS011;2601;50.224;10.126;2022-10-10T00:42:29;5.43;;;4.07;;
5163;SDS011;2601;50.224;10.126;2022-10-10T00:45:18;7.90;;;4.73;;
5163;SDS011;2601;50.224;10.126;2022-10-10T00:47:48;4.70;;;3.63;;
5163;SDS011;2601;50.224;10.126;2022-10-10T00:50:16;10.80;;;4.50;;
5163;SDS011;2601;50.224;10.126;2022-10-10T00:52:43;8.77;;;5.40;;
5163;SDS011;2601;50.224;10.126;2022-10-10T00:55:09;5.80;;;3.77;;
5163;SDS011;2601;50.224;10.126;2022-10-10T00:57:36;9.07;;;4.50;;
5163;SDS011;2601;50.224;10.126;2022-10-10T01:00:03;6.43;;;4.97;;
5163;SDS011;2601;50.224;10.126;2022-10-10T01:02:29;10.23;;;4.70;;
5163;SDS011;2601;50.224;10.126;2022-10-10T01:04:55;6.73;;;4.13;;
5163;SDS011;2601;50.224;10.126;2022-10-10T01:07:22;7.33;;;4.50;;
5163;SDS011;2601;50.224;10.126;2022-10-10T01:09:51;7.70;;;4.93;;
5163;SDS011;2601;50.224;10.126;2022-10-10T01:15:05;6.53;;;4.37;;
5163;SDS011;2601;50.224;10.126;2022-10-10T01:23:02;14.87;;;5.00;;
5163;SDS011;2601;50.224;10.126;2022-10-10T01:31:23;6.07;;;4.70;;
5163;SDS011;2601;50.224;10.126;2022-10-10T01:33:59;7.60;;;4.63;;
5163;SDS011;2601;50.224;10.126;2022-10-10T01:37:11;16.27;;;4.90;;
5163;SDS011;2601;50.224;10.126;2022-10-10T01:39:30;4.77;;;4.27;;
5163;SDS011;2601;50.224;10.126;2022-10-10T01:42:11;4.37;;;3.97;;
5163;SDS011;2601;50.224;10.126;2022-10-10T01:44:58;5.70;;;3.80;;
5163;SDS011;2601;50.224;10.126;2022-10-10T01:47:24;6.73;;;3.93;;
5163;SDS011;2601;50.224;10.126;2022-10-10T01:49:51;8.30;;;4.00;;
5163;SDS011;2601;50.224;10.126;2022-10-10T02:00:34;10.23;;;4.80;;
5163;SDS011;2601;50.224;10.126;2022-10-10T02:06:02;5.50;;;5.00;;
5163;SDS011;2601;50.224;10.126;2022-10-10T02:08:34;4.30;;;3.90;;
5163;SDS011;2601;50.224;10.126;2022-10-10T02:11:05;10.07;;;4.87;;
5163;SDS011;2601;50.224;10.126;2022-10-10T02:13:40;7.40;;;4.70;;
5163;SDS011;2601;50.224;10.126;2022-10-10T02:16:08;5.67;;;4.27;;
5163;SDS011;2601;50.224;10.126;2022-10-10T02:18:39;6.40;;;5.17;;
5163;SDS011;2601;50.224;10.126;2022-10-10T02:21:09;10.93;;;4.67;;
5163;SDS011;2601;50.224;10.126;2022-10-10T02:23:37;5.70;;;4.40;;
5163;SDS011;2601;50.224;10.126;2022-10-10T02:26:06;5.20;;;4.00;;
5163;SDS011;2601;50.224;10.126;2022-10-10T02:31:04;5.70;;;4.30;;
5163;SDS011;2601;50.224;10.126;2022-10-10T02:33:38;7.13;;;3.90;;
5163;SDS011;2601;50.224;10.126;2022-10-10T02:36:15;8.63;;;3.50;;
5163;SDS011;2601;50.224;10.126;2022-10-10T02:38:43;4.70;;;3.80;;
5163;SDS011;2601;50.224;10.126;2022-10-10T02:41:10;4.10;;;3.80;;
5163;SDS011;2601;50.224;10.126;2022-10-10T02:43:38;4.17;;;3.83;;
5163;SDS011;2601;50.224;10.126;2022-10-10T02:46:06;4.43;;;3.80;;
5163;SDS011;2601;50.224;10.126;2022-10-10T02:48:35;4.80;;;3.93;;
5163;SDS011;2601;50.224;10.126;2022-10-10T02:51:02;9.33;;;4.20;;
5163;SDS011;2601;50.224;10.126;2022-10-10T02:53:28;9.80;;;4.07;;
5163;SDS011;2601;50.224;10.126;2022-10-10T02:55:54;7.83;;;4.33;;
5163;SDS011;2601;50.224;10.126;2022-10-10T02:58:19;11.87;;;4.77;;
5163;SDS011;2601;50.224;10.126;2022-10-10T03:00:45;12.13;;;5.70;;
5163;SDS011;2601;50.224;10.126;2022-10-10T03:03:11;8.37;;;5.40;;
5163;SDS011;2601;50.224;10.126;2022-10-10T03:05:37;11.47;;;5.53;;
5163;SDS011;2601;50.224;10.126;2022-10-10T03:08:02;11.73;;;5.80;;
5163;SDS011;2601;50.224;10.126;2022-10-10T03:10:28;6.87;;;5.03;;
5163;SDS011;2601;50.224;10.126;2022-10-10T03:12:54;7.60;;;5.00;;
5163;SDS011;2601;50.224;10.126;2022-10-10T03:15:19;8.40;;;4.90;;
5163;SDS011;2601;50.224;10.126;2022-10-10T03:17:45;7.37;;;4.80;;
5163;SDS011;2601;50.224;10.126;2022-10-10T03:20:11;8.57;;;5.00;;
5163;SDS011;2601;50.224;10.126;2022-10-10T03:22:36;5.67;;;4.70;;
5163;SDS011;2601;50.224;10.126;2022-10-10T03:25:02;7.30;;;4.87;;
5163;SDS011;2601;50.224;10.126;2022-10-10T03:27:28;11.43;;;4.70;;
5163;SDS011;2601;50.224;10.126;2022-10-10T03:29:54;10.00;;;4.67;;
5163;SDS011;2601;50.224;10.126;2022-10-10T03:32:20;8.87;;;5.07;;
5163;SDS011;2601;50.224;10.126;2022-10-10T03:34:45;7.60;;;5.60;;
5163;SDS011;2601;50.224;10.126;2022-10-10T03:37:11;10.13;;;5.37;;
5163;SDS011;2601;50.224;10.126;2022-10-10T03:39:37;7.83;;;6.47;;
5163;SDS011;2601;50.224;10.126;2022-10-10T03:42:02;7.63;;;5.63;;
5163;SDS011;2601;50.224;10.126;2022-10-10T03:44:28;6.70;;;5.13;;
5163;SDS011;2601;50.224;10.126;2022-10-10T03:46:54;9.27;;;5.87;;
5163;SDS011;2601;50.224;10.126;2022-10-10T03:49:20;10.07;;;5.30;;
5163;SDS011;2601;50.224;10.126;2022-10-10T03:51:46;11.97;;;5.10;;
5163;SDS011;2601;50.224;10.126;2022-10-10T03:54:11;7.23;;;4.93;;
5163;SDS011;2601;50.224;10.126;2022-10-10T03:56:37;8.80;;;4.83;;
5163;SDS011;2601;50.224;10.126;2022-10-10T03:59:02;19.40;;;4.60;;
5163;SDS011;2601;50.224;10.126;2022-10-10T04:01:30;7.07;;;5.00;;
5163;SDS011;2601;50.224;10.126;2022-10-10T04:03:56;22.00;;;4.90;;
5163;SDS011;2601;50.224;10.126;2022-10-10T04:06:22;7.53;;;5.23;;
5163;SDS011;2601;50.224;10.126;2022-10-10T04:08:48;5.80;;;5.20;;
5163;SDS011;2601;50.224;10.126;2022-10-10T04:11:13;7.77;;;6.07;;
5163;SDS011;2601;50.224;10.126;2022-10-10T04:13:39;9.17;;;5.93;;
5163;SDS011;2601;50.224;10.126;2022-10-10T04:16:05;10.67;;;6.10;;
5163;SDS011;2601;50.224;10.126;2022-10-10T04:18:30;5.07;;;4.57;;
5163;SDS011;2601;50.224;10.126;2022-10-10T04:20:56;5.93;;;5.00;;
5163;SDS011;2601;50.224;10.126;2022-10-10T04:23:25;5.13;;;4.47;;
5163;SDS011;2601;50.224;10.126;2022-10-10T04:25:51;9.60;;;5.10;;
5163;SDS011;2601;50.224;10.126;2022-10-10T04:28:17;8.10;;;4.00;;
5163;SDS011;2601;50.224;10.126;2022-10-10T04:30:43;5.93;;;4.60;;
5163;SDS011;2601;50.224;10.126;2022-10-10T04:33:09;6.73;;;4.50;;
5163;SDS011;2601;50.224;10.126;2022-10-10T04:35:35;6.93;;;4.57;;
5163;SDS011;2601;50.224;10.126;2022-10-10T04:38:01;9.17;;;4.73;;
5163;SDS011;2601;50.224;10.126;2022-10-10T04:40:27;4.90;;;4.33;;
5163;SDS011;2601;50.224;10.126;2022-10-10T04:42:53;7.47;;;4.17;;
5163;SDS011;2601;50.224;10.126;2022-10-10T04:45:19;12.27;;;4.23;;
5163;SDS011;2601;50.224;10.126;2022-10-10T04:47:45;7.30;;;4.43;;
5163;SDS011;2601;50.224;10.126;2022-10-10T04:50:11;8.43;;;5.80;;
5163;SDS011;2601;50.224;10.126;2022-10-10T04:52:37;6.33;;;4.30;;
5163;SDS011;2601;50.224;10.126;2022-10-10T04:55:03;6.23;;;3.83;;
5163;SDS011;2601;50.224;10.126;2022-10-10T04:57:29;11.70;;;4.73;;
5163;SDS011;2601;50.224;10.126;2022-10-10T04:59:54;4.80;;;3.40;;
5163;SDS011;2601;50.224;10.126;2022-10-10T05:02:20;5.67;;;3.60;;
5163;SDS011;2601;50.224;10.126;2022-10-10T05:04:46;4.10;;;3.73;;
5163;SDS011;2601;50.224;10.126;2022-10-10T05:07:11;6.67;;;4.00;;
5163;SDS011;2601;50.224;10.126;2022-10-10T05:09:37;10.60;;;4.00;;
5163;SDS011;2601;50.224;10.126;2022-10-10T05:12:03;14.93;;;5.10;;
5163;SDS011;2601;50.224;10.126;2022-10-10T05:14:29;9.13;;;4.30;;
5163;SDS011;2601;50.224;10.126;2022-10-10T05:16:54;8.20;;;4.60;;
5163;SDS011;2601;50.224;10.126;2022-10-10T05:19:20;6.80;;;4.37;;
5163;SDS011;2601;50.224;10.126;2022-10-10T05:21:46;7.83;;;5.50;;
5163;SDS011;2601;50.224;10.126;2022-10-10T05:24:12;19.60;;;6.00;;
5163;SDS011;2601;50.224;10.126;2022-10-10T05:26:37;10.73;;;6.07;;
5163;SDS011;2601;50.224;10.126;2022-10-10T05:29:03;11.17;;;5.70;;
5163;SDS011;2601;50.224;10.126;2022-10-10T05:31:30;21.53;;;5.03;;
5163;SDS011;2601;50.224;10.126;2022-10-10T05:33:55;9.30;;;5.40;;
5163;SDS011;2601;50.224;10.126;2022-10-10T05:36:21;5.57;;;5.07;;
5163;SDS011;2601;50.224;10.126;2022-10-10T05:38:47;9.10;;;5.20;;
5163;SDS011;2601;50.224;10.126;2022-10-10T05:41:12;10.03;;;5.60;;
5163;SDS011;2601;50.224;10.126;2022-10-10T05:43:38;5.00;;;4.30;;
5163;SDS011;2601;50.224;10.126;2022-10-10T05:46:04;9.17;;;5.90;;
5163;SDS011;2601;50.224;10.126;2022-10-10T05:48:30;10.27;;;6.33;;
5163;SDS011;2601;50.224;10.126;2022-10-10T05:50:56;11.87;;;5.53;;
5163;SDS011;2601;50.224;10.126;2022-10-10T05:53:24;8.63;;;4.93;;
5163;SDS011;2601;50.224;10.126;2022-10-10T05:55:50;9.07;;;5.87;;
5163;SDS011;2601;50.224;10.126;2022-10-10T05:58:16;13.23;;;6.50;;
5163;SDS011;2601;50.224;10.126;2022-10-10T06:00:43;8.60;;;6.00;;
5163;SDS011;2601;50.224;10.126;2022-10-10T06:03:10;6.80;;;4.80;;
5163;SDS011;2601;50.224;10.126;2022-10-10T06:05:39;10.57;;;4.97;;
5163;SDS011;2601;50.224;10.126;2022-10-10T06:08:06;8.43;;;5.10;;
5163;SDS011;2601;50.224;10.126;2022-10-10T06:10:33;10.80;;;5.00;;
5163;SDS011;2601;50.224;10.126;2022-10-10T06:12:59;11.33;;;6.67;;
5163;SDS011;2601;50.224;10.126;2022-10-10T06:15:25;10.20;;;5.00;;
5163;SDS011;2601;50.224;10.126;2022-10-10T06:17:50;5.93;;;5.00;;
5163;SDS011;2601;50.224;10.126;2022-10-10T06:20:16;12.30;;;4.60;;
5163;SDS011;2601;50.224;10.126;2022-10-10T06:22:42;11.97;;;6.67;;
5163;SDS011;2601;50.224;10.126;2022-10-10T06:25:07;9.03;;;6.57;;
5163;SDS011;2601;50.224;10.126;2022-10-10T06:27:33;15.40;;;7.60;;
5163;SDS011;2601;50.224;10.126;2022-10-10T06:29:59;10.03;;;7.10;;
5163;SDS011;2601;50.224;10.126;2022-10-10T06:32:25;12.10;;;6.70;;
5163;SDS011;2601;50.224;10.126;2022-10-10T06:34:50;14.80;;;7.40;;
5163;SDS011;2601;50.224;10.126;2022-10-10T06:37:16;13.37;;;7.17;;
5163;SDS011;2601;50.224;10.126;2022-10-10T06:39:42;10.73;;;6.33;;
5163;SDS011;2601;50.224;10.126;2022-10-10T06:42:07;11.17;;;7.10;;
5163;SDS011;2601;50.224;10.126;2022-10-10T06:44:33;8.63;;;7.27;;
5163;SDS011;2601;50.224;10.126;2022-10-10T06:46:59;13.80;;;8.30;;
5163;SDS011;2601;50.224;10.126;2022-10-10T06:49:25;11.20;;;7.87;;
5163;SDS011;2601;50.224;10.126;2022-10-10T06:51:50;13.33;;;8.10;;
5163;SDS011;2601;50.224;10.126;2022-10-10T06:54:16;10.90;;;6.00;;
5163;SDS011;2601;50.224;10.126;2022-10-10T06:56:42;15.93;;;9.63;;
5163;SDS011;2601;50.224;10.126;2022-10-10T06:59:08;20.67;;;7.93;;
5163;SDS011;2601;50.224;10.126;2022-10-10T07:01:34;15.13;;;8.23;;
5163;SDS011;2601;50.224;10.126;2022-10-10T07:04:00;17.60;;;6.70;;
5163;SDS011;2601;50.224;10.126;2022-10-10T07:06:26;15.60;;;8.00;;
5163;SDS011;2601;50.224;10.126;2022-10-10T07:08:52;16.73;;;9.00;;
5163;SDS011;2601;50.224;10.126;2022-10-10T07:11:17;18.70;;;8.83;;
5163;SDS011;2601;50.224;10.126;2022-10-10T07:13:43;13.03;;;7.80;;
5163;SDS011;2601;50.224;10.126;2022-10-10T07:16:09;7.40;;;6.00;;
5163;SDS011;2601;50.224;10.126;2022-10-10T07:18:36;15.87;;;7.13;;
5163;SDS011;2601;50.224;10.126;2022-10-10T07:21:02;17.20;;;6.80;;
5163;SDS011;2601;50.224;10.126;2022-10-10T07:23:29;18.73;;;7.47;;
5163;SDS011;2601;50.224;10.126;2022-10-10T07:25:58;10.20;;;5.43;;
5163;SDS011;2601;50.224;10.126;2022-10-10T07:28:29;9.27;;;6.43;;
5163;SDS011;2601;50.224;10.126;2022-10-10T07:30:59;12.40;;;5.77;;
5163;SDS011;2601;50.224;10.126;2022-10-10T07:33:30;16.50;;;6.37;;
5163;SDS011;2601;50.224;10.126;2022-10-10T07:35:57;13.57;;;5.87;;
5163;SDS011;2601;50.224;10.126;2022-10-10T07:38:22;21.37;;;7.27;;
5163;SDS011;2601;50.224;10.126;2022-10-10T07:40:48;15.37;;;8.90;;
5163;SDS011;2601;50.224;10.126;2022-10-10T07:43:14;13.93;;;7.80;;
5163;SDS011;2601;50.224;10.126;2022-10-10T07:45:40;13.03;;;7.50;;
5163;SDS011;2601;50.224;10.126;2022-10-10T07:48:05;10.40;;;7.30;;
5163;SDS011;2601;50.224;10.126;2022-10-10T07:50:31;12.33;;;7.00;;
5163;SDS011;2601;50.224;10.126;2022-10-10T07:52:57;16.00;;;6.87;;
5163;SDS011;2601;50.224;10.126;2022-10-10T07:55:22;14.33;;;6.43;;
5163;SDS011;2601;50.224;10.126;2022-10-10T07:57:48;9.80;;;4.70;;
5163;SDS011;2601;50.224;10.126;2022-10-10T08:00:16;12.23;;;5.63;;
5163;SDS011;2601;50.224;10.126;2022-10-10T08:02:42;10.90;;;4.67;;
5163;SDS011;2601;50.224;10.126;2022-10-10T08:05:08;11.83;;;4.90;;
5163;SDS011;2601;50.224;10.126;2022-10-10T08:07:34;10.77;;;5.03;;
5163;SDS011;2601;50.224;10.126;2022-10-10T08:10:00;8.23;;;4.50;;
5163;SDS011;2601;50.224;10.126;2022-10-10T08:12:26;8.20;;;4.20;;
5163;SDS011;2601;50.224;10.126;2022-10-10T08:14:52;10.10;;;7.60;;
5163;SDS011;2601;50.224;10.126;2022-10-10T08:17:18;10.83;;;4.13;;
5163;SDS011;2601;50.224;10.126;2022-10-10T08:19:44;9.93;;;6.03;;
5163;SDS011;2601;50.224;10.126;2022-10-10T08:22:10;6.33;;;5.60;;
5163;SDS011;2601;50.224;10.126;2022-10-10T08:24:37;5.60;;;3.97;;
5163;SDS011;2601;50.224;10.126;2022-10-10T08:27:02;7.70;;;4.50;;
5163;SDS011;2601;50.224;10.126;2022-10-10T08:29:49;12.50;;;4.00;;
5163;SDS011;2601;50.224;10.126;2022-10-10T08:32:14;6.17;;;4.33;;
5163;SDS011;2601;50.224;10.126;2022-10-10T08:34:40;15.83;;;4.17;;
5163;SDS011;2601;50.224;10.126;2022-10-10T08:37:06;7.40;;;4.53;;
5163;SDS011;2601;50.224;10.126;2022-10-10T08:39:31;8.37;;;4.27;;
5163;SDS011;2601;50.224;10.126;2022-10-10T08:41:58;8.33;;;4.23;;
5163;SDS011;2601;50.224;10.126;2022-10-10T08:52:29;8.20;;;4.10;;
5163;SDS011;2601;50.224;10.126;2022-10-10T08:55:07;5.87;;;4.47;;
5163;SDS011;2601;50.224;10.126;2022-10-10T09:00:28;8.43;;;4.90;;
5163;SDS011;2601;50.224;10.126;2022-10-10T09:02:58;7.20;;;4.00;;
5163;SDS011;2601;50.224;10.126;2022-10-10T09:08:23;6.07;;;4.37;;
5163;SDS011;2601;50.224;10.126;2022-10-10T09:11:26;5.03;;;3.83;;
5163;SDS011;2601;50.224;10.126;2022-10-10T09:17:13;8.17;;;4.77;;
5163;SDS011;2601;50.224;10.126;2022-10-10T09:22:35;8.00;;;4.83;;
5163;SDS011;2601;50.224;10.126;2022-10-10T09:25:29;8.53;;;4.83;;
5163;SDS011;2601;50.224;10.126;2022-10-10T09:28:15;13.90;;;4.60;;
5163;SDS011;2601;50.224;10.126;2022-10-10T09:30:53;5.13;;;4.47;;
5163;SDS011;2601;50.224;10.126;2022-10-10T09:33:29;13.90;;;5.40;;
5163;SDS011;2601;50.224;10.126;2022-10-10T09:36:04;9.53;;;4.57;;
5163;SDS011;2601;50.224;10.126;2022-10-10T09:38:36;10.87;;;5.93;;
5163;SDS011;2601;50.224;10.126;2022-10-10T09:41:13;10.00;;;5.00;;
5163;SDS011;2601;50.224;10.126;2022-10-10T09:43:39;7.53;;;5.10;;
5163;SDS011;2601;50.224;10.126;2022-10-10T09:46:06;9.50;;;4.90;;
5163;SDS011;2601;50.224;10.126;2022-10-10T09:48:36;12.10;;;4.90;;
5163;SDS011;2601;50.224;10.126;2022-10-10T09:51:04;9.20;;;4.70;;
5163;SDS011;2601;50.224;10.126;2022-10-10T09:53:32;7.63;;;4.47;;
5163;SDS011;2601;50.224;10.126;2022-10-10T09:55:58;9.00;;;4.77;;
5163;SDS011;2601;50.224;10.126;2022-10-10T09:58:38;12.03;;;6.90;;
5163;SDS011;2601;50.224;10.126;2022-10-10T10:01:25;5.77;;;4.50;;
5163;SDS011;2601;50.224;10.126;2022-10-10T10:06:50;45.50;;;21.87;;
5163;SDS011;2601;50.224;10.126;2022-10-10T10:09:16;34.00;;;14.93;;
5163;SDS011;2601;50.224;10.126;2022-10-10T10:11:45;8.03;;;5.33;;
5163;SDS011;2601;50.224;10.126;2022-10-10T10:14:34;8.93;;;3.93;;
5163;SDS011;2601;50.224;10.126;2022-10-10T10:17:09;7.70;;;5.20;;
5163;SDS011;2601;50.224;10.126;2022-10-10T10:19:43;6.63;;;3.97;;
5163;SDS011;2601;50.224;10.126;2022-10-10T10:24:48;10.00;;;4.87;;
5163;SDS011;2601;50.224;10.126;2022-10-10T10:27:15;11.57;;;5.90;;
5163;SDS011;2601;50.224;10.126;2022-10-10T10:29:45;13.10;;;6.07;;
5163;SDS011;2601;50.224;10.126;2022-10-10T10:32:22;28.07;;;16.87;;
5163;SDS011;2601;50.224;10.126;2022-10-10T10:54:24;9.97;;;4.83;;
5163;SDS011;2601;50.224;10.126;2022-10-10T11:00:13;9.27;;;4.87;;
5163;SDS011;2601;50.224;10.126;2022-10-10T11:02:44;7.77;;;3.97;;
5163;SDS011;2601;50.224;10.126;2022-10-10T11:13:46;56.27;;;26.00;;
5163;SDS011;2601;50.224;10.126;2022-10-10T11:16:24;33.87;;;16.60;;
5163;SDS011;2601;50.224;10.126;2022-10-10T11:22:37;15.10;;;5.77;;
5163;SDS011;2601;50.224;10.126;2022-10-10T11:24:43;18.47;;;8.70;;
5163;SDS011;2601;50.224;10.126;2022-10-10T11:27:21;18.50;;;9.63;;
5163;SDS011;2601;50.224;10.126;2022-10-10T11:30:03;9.80;;;4.40;;
5163;SDS011;2601;50.224;10.126;2022-10-10T11:32:35;10.73;;;6.40;;
5163;SDS011;2601;50.224;10.126;2022-10-10T11:35:15;13.73;;;5.07;;
5163;SDS011;2601;50.224;10.126;2022-10-10T11:37:52;13.27;;;4.77;;
5163;SDS011;2601;50.224;10.126;2022-10-10T11:40:39;41.50;;;22.03;;
5163;SDS011;2601;50.224;10.126;2022-10-10T11:43:16;12.53;;;6.03;;
5163;SDS011;2601;50.224;10.126;2022-10-10T11:45:54;9.30;;;4.40;;
5163;SDS011;2601;50.224;10.126;2022-10-10T11:48:28;9.00;;;5.70;;
5163;SDS011;2601;50.224;10.126;2022-10-10T11:51:03;23.93;;;12.63;;
5163;SDS011;2601;50.224;10.126;2022-10-10T11:53:40;34.60;;;17.63;;
5163;SDS011;2601;50.224;10.126;2022-10-10T12:01:39;21.03;;;11.20;;
5163;SDS011;2601;50.224;10.126;2022-10-10T12:04:10;17.40;;;6.90;;
5163;SDS011;2601;50.224;10.126;2022-10-10T12:06:43;10.13;;;4.60;;
5163;SDS011;2601;50.224;10.126;2022-10-10T12:09:29;15.90;;;4.33;;
5163;SDS011;2601;50.224;10.126;2022-10-10T12:11:59;13.00;;;4.87;;
5163;SDS011;2601;50.224;10.126;2022-10-10T12:14:35;8.97;;;3.43;;
5163;SDS011;2601;50.224;10.126;2022-10-10T12:17:02;8.33;;;4.43;;
5163;SDS011;2601;50.224;10.126;2022-10-10T12:19:29;9.17;;;5.33;;
5163;SDS011;2601;50.224;10.126;2022-10-10T12:22:01;10.80;;;4.07;;
5163;SDS011;2601;50.224;10.126;2022-10-10T12:24:30;13.10;;;4.43;;
5163;SDS011;2601;50.224;10.126;2022-10-10T12:34:42;6.13;;;3.53;;
5163;SDS011;2601;50.224;10.126;2022-10-10T12:42:31;18.60;;;6.87;;
5163;SDS011;2601;50.224;10.126;2022-10-10T12:44:57;15.20;;;4.77;;
5163;SDS011;2601;50.224;10.126;2022-10-10T12:47:26;16.50;;;4.37;;
5163;SDS011;2601;50.224;10.126;2022-10-10T12:49:57;8.23;;;3.60;;
5163;SDS011;2601;50.224;10.126;2022-10-10T12:55:06;13.20;;;4.07;;
5163;SDS011;2601;50.224;10.126;2022-10-10T12:57:42;12.10;;;3.57;;
5163;SDS011;2601;50.224;10.126;2022-10-10T13:00:14;11.93;;;3.97;;
5163;SDS011;2601;50.224;10.126;2022-10-10T13:03:00;10.23;;;3.40;;
5163;SDS011;2601;50.224;10.126;2022-10-10T13:05:29;13.37;;;3.67;;
5163;SDS011;2601;50.224;10.126;2022-10-10T13:07:59;20.43;;;3.67;;
5163;SDS011;2601;50.224;10.126;2022-10-10T13:10:28;10.87;;;4.03;;
5163;SDS011;2601;50.224;10.126;2022-10-10T13:15:27;9.20;;;4.40;;
5163;SDS011;2601;50.224;10.126;2022-10-10T13:17:53;6.33;;;3.63;;
5163;SDS011;2601;50.224;10.126;2022-10-10T13:22:50;14.60;;;4.80;;
5163;SDS011;2601;50.224;10.126;2022-10-10T13:25:16;7.63;;;4.40;;
5163;SDS011;2601;50.224;10.126;2022-10-10T13:27:42;14.63;;;4.50;;
5163;SDS011;2601;50.224;10.126;2022-10-10T13:30:17;10.07;;;4.20;;
5163;SDS011;2601;50.224;10.126;2022-10-10T13:32:48;11.90;;;4.10;;
5163;SDS011;2601;50.224;10.126;2022-10-10T13:35:24;8.70;;;4.13;;
5163;SDS011;2601;50.224;10.126;2022-10-10T13:37:55;10.43;;;3.80;;
5163;SDS011;2601;50.224;10.126;2022-10-10T13:40:23;11.30;;;4.50;;
5163;SDS011;2601;50.224;10.126;2022-10-10T13:42:50;8.20;;;4.03;;
5163;SDS011;2601;50.224;10.126;2022-10-10T13:50:30;12.60;;;4.53;;
5163;SDS011;2601;50.224;10.126;2022-10-10T13:53:23;10.40;;;4.10;;
5163;SDS011;2601;50.224;10.126;2022-10-10T14:01:16;12.03;;;4.00;;
5163;SDS011;2601;50.224;10.126;2022-10-10T14:03:44;7.60;;;3.30;;
5163;SDS011;2601;50.224;10.126;2022-10-10T14:06:16;9.80;;;3.53;;
5163;SDS011;2601;50.224;10.126;2022-10-10T14:08:43;20.30;;;4.30;;
5163;SDS011;2601;50.224;10.126;2022-10-10T14:11:13;20.10;;;3.50;;
5163;SDS011;2601;50.224;10.126;2022-10-10T14:13:44;3.40;;;3.10;;
5163;SDS011;2601;50.224;10.126;2022-10-10T14:18:42;11.30;;;3.70;;
5163;SDS011;2601;50.224;10.126;2022-10-10T14:21:08;16.13;;;3.90;;
5163;SDS011;2601;50.224;10.126;2022-10-10T14:23:35;16.03;;;4.37;;
5163;SDS011;2601;50.224;10.126;2022-10-10T14:26:01;12.10;;;3.50;;
5163;SDS011;2601;50.224;10.126;2022-10-10T14:28:28;12.10;;;4.00;;
5163;SDS011;2601;50.224;10.126;2022-10-10T14:30:55;12.63;;;4.10;;
5163;SDS011;2601;50.224;10.126;2022-10-10T14:33:21;13.03;;;3.87;;
5163;SDS011;2601;50.224;10.126;2022-10-10T14:35:47;15.17;;;4.50;;
5163;SDS011;2601;50.224;10.126;2022-10-10T14:38:14;14.50;;;4.10;;
5163;SDS011;2601;50.224;10.126;2022-10-10T14:40:41;20.73;;;4.27;;
5163;SDS011;2601;50.224;10.126;2022-10-10T14:43:08;8.87;;;3.70;;
5163;SDS011;2601;50.224;10.126;2022-10-10T14:45:33;10.97;;;4.13;;
5163;SDS011;2601;50.224;10.126;2022-10-10T14:47:59;5.07;;;3.33;;
5163;SDS011;2601;50.224;10.126;2022-10-10T14:50:35;8.80;;;4.03;;
5163;SDS011;2601;50.224;10.126;2022-10-10T14:53:04;7.53;;;3.80;;
5163;SDS011;2601;50.224;10.126;2022-10-10T14:55:30;16.73;;;4.20;;
5163;SDS011;2601;50.224;10.126;2022-10-10T14:57:56;18.60;;;4.27;;
5163;SDS011;2601;50.224;10.126;2022-10-10T15:00:23;16.53;;;4.90;;
5163;SDS011;2601;50.224;10.126;2022-10-10T15:02:50;13.97;;;4.57;;
5163;SDS011;2601;50.224;10.126;2022-10-10T15:05:16;12.33;;;4.83;;
5163;SDS011;2601;50.224;10.126;2022-10-10T15:07:42;23.83;;;4.27;;
5163;SDS011;2601;50.224;10.126;2022-10-10T15:10:08;14.90;;;3.83;;
5163;SDS011;2601;50.224;10.126;2022-10-10T15:12:36;12.53;;;3.57;;
5163;SDS011;2601;50.224;10.126;2022-10-10T15:15:04;19.07;;;4.33;;
5163;SDS011;2601;50.224;10.126;2022-10-10T15:17:30;26.90;;;4.67;;
5163;SDS011;2601;50.224;10.126;2022-10-10T15:19:58;15.90;;;4.80;;
5163;SDS011;2601;50.224;10.126;2022-10-10T15:22:31;11.63;;;5.30;;
5163;SDS011;2601;50.224;10.126;2022-10-10T15:24:58;18.90;;;5.30;;
5163;SDS011;2601;50.224;10.126;2022-10-10T15:27:24;13.03;;;5.53;;
5163;SDS011;2601;50.224;10.126;2022-10-10T15:29:52;20.07;;;6.40;;
5163;SDS011;2601;50.224;10.126;2022-10-10T15:32:17;16.03;;;4.10;;
5163;SDS011;2601;50.224;10.126;2022-10-10T15:34:46;11.50;;;4.90;;
5163;SDS011;2601;50.224;10.126;2022-10-10T15:37:12;11.40;;;4.07;;
5163;SDS011;2601;50.224;10.126;2022-10-10T15:39:38;10.33;;;4.50;;
5163;SDS011;2601;50.224;10.126;2022-10-10T15:42:05;13.43;;;3.70;;
5163;SDS011;2601;50.224;10.126;2022-10-10T15:44:30;20.43;;;4.10;;
5163;SDS011;2601;50.224;10.126;2022-10-10T15:46:56;16.27;;;4.70;;
5163;SDS011;2601;50.224;10.126;2022-10-10T15:49:22;11.93;;;4.70;;
5163;SDS011;2601;50.224;10.126;2022-10-10T15:51:47;22.80;;;4.83;;
5163;SDS011;2601;50.224;10.126;2022-10-10T15:54:13;12.93;;;5.37;;
5163;SDS011;2601;50.224;10.126;2022-10-10T15:56:39;28.10;;;6.07;;
5163;SDS011;2601;50.224;10.126;2022-10-10T15:59:05;17.33;;;4.53;;
5163;SDS011;2601;50.224;10.126;2022-10-10T16:01:32;14.20;;;5.43;;
5163;SDS011;2601;50.224;10.126;2022-10-10T16:04:00;23.13;;;5.10;;
5163;SDS011;2601;50.224;10.126;2022-10-10T16:06:26;19.43;;;5.80;;
5163;SDS011;2601;50.224;10.126;2022-10-10T16:08:52;13.73;;;5.33;;
5163;SDS011;2601;50.224;10.126;2022-10-10T16:11:19;13.80;;;5.50;;
5163;SDS011;2601;50.224;10.126;2022-10-10T16:13:47;29.33;;;6.20;;
5163;SDS011;2601;50.224;10.126;2022-10-10T16:16:13;17.20;;;5.00;;
5163;SDS011;2601;50.224;10.126;2022-10-10T16:18:40;26.83;;;5.80;;
5163;SDS011;2601;50.224;10.126;2022-10-10T16:21:07;15.97;;;6.40;;
5163;SDS011;2601;50.224;10.126;2022-10-10T16:23:34;23.73;;;6.60;;
5163;SDS011;2601;50.224;10.126;2022-10-10T16:26:04;23.23;;;9.20;;
5163;SDS011;2601;50.224;10.126;2022-10-10T16:28:41;24.30;;;8.80;;
5163;SDS011;2601;50.224;10.126;2022-10-10T16:31:08;17.53;;;8.60;;
5163;SDS011;2601;50.224;10.126;2022-10-10T16:33:35;35.00;;;11.70;;
5163;SDS011;2601;50.224;10.126;2022-10-10T16:36:34;30.77;;;11.40;;
5163;SDS011;2601;50.224;10.126;2022-10-10T16:38:55;33.13;;;10.80;;
5163;SDS011;2601;50.224;10.126;2022-10-10T16:41:22;16.93;;;6.90;;
5163;SDS011;2601;50.224;10.126;2022-10-10T16:43:49;65.83;;;10.90;;
5163;SDS011;2601;50.224;10.126;2022-10-10T16:46:16;142.93;;;16.50;;
5163;SDS011;2601;50.224;10.126;2022-10-10T16:48:43;140.73;;;14.90;;
5163;SDS011;2601;50.224;10.126;2022-10-10T16:51:13;102.13;;;14.87;;
5163;SDS011;2601;50.224;10.126;2022-10-10T16:53:44;40.33;;;8.73;;
5163;SDS011;2601;50.224;10.126;2022-10-10T16:56:12;23.37;;;5.90;;
5163;SDS011;2601;50.224;10.126;2022-10-10T16:58:39;18.33;;;5.93;;
5163;SDS011;2601;50.224;10.126;2022-10-10T17:01:12;21.97;;;6.50;;
5163;SDS011;2601;50.224;10.126;2022-10-10T17:03:40;29.57;;;5.47;;
5163;SDS011;2601;50.224;10.126;2022-10-10T17:06:07;28.10;;;6.60;;
5163;SDS011;2601;50.224;10.126;2022-10-10T17:08:37;15.30;;;5.63;;